createdAt,value
2022-10-07T00:01:37.019Z,0
2022-10-07T00:06:41.095Z,0
2022-10-07T00:11:45.237Z,0
2022-10-07T00:16:49.512Z,0
2022-10-07T00:21:53.573Z,0
2022-10-07T00:26:57.712Z,0
2022-10-07T00:32:01.867Z,0
2022-10-07T00:37:06.087Z,0
2022-10-07T00:42:10.246Z,0
2022-10-07T00:47:14.382Z,0
2022-10-07T00:52:18.532Z,0
2022-10-07T00:57:22.716Z,0
2022-10-07T01:02:26.966Z,0
2022-10-07T01:07:31.016Z,0
2022-10-07T01:12:35.181Z,0
2022-10-07T01:17:39.351Z,0
2022-10-07T01:22:43.519Z,0
2022-10-07T01:27:47.682Z,0
2022-10-07T01:32:49.968Z,0
2022-10-07T01:37:54.128Z,0
2022-10-07T01:42:56.389Z,0
2022-10-07T01:48:00.588Z,0
2022-10-07T01:53:04.719Z,0
2022-10-07T01:58:08.921Z,0
2022-10-07T02:03:13.235Z,0
2022-10-07T02:08:17.197Z,0
2022-10-07T02:13:21.348Z,0
2022-10-07T02:18:25.564Z,0
2022-10-07T02:23:29.708Z,0
2022-10-07T02:28:33.987Z,0
2022-10-07T02:33:38.044Z,0
2022-10-07T02:38:42.207Z,0
2022-10-07T02:43:46.338Z,0
2022-10-07T02:48:50.504Z,0
2022-10-07T02:53:54.662Z,0
2022-10-07T02:58:58.829Z,0
2022-10-07T03:04:03.048Z,0
2022-10-07T03:09:07.143Z,0
2022-10-07T03:14:11.354Z,0
2022-10-07T03:19:15.523Z,0
2022-10-07T03:24:19.646Z,0
2022-10-07T03:29:21.966Z,0
2022-10-07T03:34:26.079Z,0
2022-10-07T03:39:30.270Z,0
2022-10-07T03:44:34.404Z,0
2022-10-07T03:49:38.559Z,0
2022-10-07T03:54:42.749Z,0
2022-10-07T03:59:46.927Z,0
2022-10-07T04:04:51.064Z,0
2022-10-07T04:09:55.221Z,0
2022-10-07T04:14:59.375Z,0
2022-10-07T04:20:03.562Z,0
2022-10-07T04:25:07.740Z,0
2022-10-07T04:30:11.885Z,0
2022-10-07T04:35:16.017Z,0
2022-10-07T04:40:20.231Z,0
2022-10-07T04:45:24.361Z,0
2022-10-07T04:50:28.535Z,0
2022-10-07T04:55:32.704Z,0
2022-10-07T05:00:36.912Z,0
2022-10-07T05:05:41.002Z,0
2022-10-07T05:10:45.191Z,0
2022-10-07T05:15:47.457Z,0
2022-10-07T05:20:51.661Z,2
2022-10-07T05:25:53.903Z,7
2022-10-07T05:30:58.088Z,20
2022-10-07T05:36:02.209Z,43
2022-10-07T05:41:06.399Z,85
2022-10-07T05:46:10.646Z,144
2022-10-07T05:51:14.723Z,215
2022-10-07T05:56:18.894Z,305
2022-10-07T06:01:23.087Z,402
2022-10-07T06:06:27.289Z,490
2022-10-07T06:11:31.375Z,580
2022-10-07T06:21:39.691Z,754
2022-10-07T06:26:43.995Z,825
2022-10-07T06:31:48.033Z,883
2022-10-07T06:36:52.203Z,935
2022-10-07T06:41:56.328Z,999
2022-10-07T06:47:00.545Z,1068
2022-10-07T06:52:04.706Z,1115
2022-10-07T06:57:26.719Z,1142
2022-10-07T07:02:13.062Z,1168
2022-10-07T07:07:17.178Z,1192
2022-10-07T07:12:21.329Z,1238
2022-10-07T07:17:23.586Z,1277
2022-10-07T07:22:27.756Z,1308
2022-10-07T07:27:30.071Z,1340
2022-10-07T07:32:34.164Z,1392
2022-10-07T07:37:38.363Z,1446
2022-10-07T07:42:42.568Z,1452
2022-10-07T07:47:47.023Z,1456
2022-10-07T07:52:55.224Z,1483
2022-10-07T07:57:53.128Z,1540
2022-10-07T08:02:57.330Z,1558
2022-10-07T08:08:01.452Z,1568
2022-10-07T08:13:05.639Z,1563
2022-10-07T08:18:09.783Z,1581
2022-10-07T08:23:13.929Z,1612
2022-10-07T08:28:18.114Z,1691
2022-10-07T08:33:22.229Z,1725
2022-10-07T08:43:30.568Z,1849
2022-10-07T08:48:34.697Z,1958
2022-10-07T08:53:38.886Z,2075
2022-10-07T08:58:43.063Z,2080
2022-10-07T09:03:47.222Z,2189
2022-10-07T09:08:51.355Z,2191
2022-10-07T09:13:55.590Z,2210
2022-10-07T09:18:57.803Z,2178
2022-10-07T09:24:01.975Z,1996
2022-10-07T09:29:06.127Z,1854
2022-10-07T09:34:08.390Z,1807
2022-10-07T09:39:12.525Z,1723
2022-10-07T09:44:16.704Z,1717
2022-10-07T09:49:24.276Z,1701
2022-10-07T09:54:25.052Z,1734
2022-10-07T09:59:29.173Z,1813
2022-10-07T10:04:33.366Z,1887
2022-10-07T10:09:37.493Z,1882
2022-10-07T10:14:41.747Z,1835
2022-10-07T10:19:45.841Z,1870
2022-10-07T10:24:49.963Z,1868
2022-10-07T10:29:54.140Z,1867
2022-10-07T10:34:58.301Z,1872
2022-10-07T10:40:02.486Z,1820
2022-10-07T10:45:06.614Z,1910
2022-10-07T10:50:10.808Z,1965
2022-10-07T10:55:14.961Z,2107
2022-10-07T11:00:19.129Z,2165
2022-10-07T11:05:23.279Z,2270
2022-10-07T11:10:27.414Z,2330
2022-10-07T11:15:31.583Z,2309
2022-10-07T11:20:33.876Z,2250
2022-10-07T11:25:38.016Z,2231
2022-10-07T11:30:40.292Z,2375
2022-10-07T11:35:44.445Z,2416
2022-10-07T11:40:48.629Z,2384
2022-10-07T11:45:52.772Z,2268
2022-10-07T11:50:56.945Z,2144
2022-10-07T11:56:01.093Z,2133
2022-10-07T12:01:05.284Z,2172
2022-10-07T12:06:09.433Z,2193
2022-10-07T12:11:13.603Z,2139
2022-10-07T12:16:17.787Z,2117
2022-10-07T12:21:21.902Z,2103
2022-10-07T12:26:26.014Z,2173
2022-10-07T12:31:30.260Z,2250
2022-10-07T12:36:34.387Z,2220
2022-10-07T12:41:40.326Z,2202
2022-10-07T12:46:42.683Z,2166
2022-10-07T12:51:46.856Z,2202
2022-10-07T12:56:51.054Z,2360
2022-10-07T13:01:55.265Z,2293
2022-10-07T13:06:59.386Z,2220
2022-10-07T13:12:03.488Z,2195
2022-10-07T13:17:05.778Z,2163
2022-10-07T13:22:09.911Z,2093
2022-10-07T13:27:12.169Z,2019
2022-10-07T13:32:16.324Z,2077
2022-10-07T13:37:20.511Z,2218
2022-10-07T13:42:22.772Z,2189
2022-10-07T13:47:26.946Z,2109
2022-10-07T13:52:31.091Z,2141
2022-10-07T13:57:35.256Z,2220
2022-10-07T14:02:40.549Z,2282
2022-10-07T14:07:43.536Z,2289
2022-10-07T14:12:48.091Z,2225
2022-10-07T14:17:51.880Z,2135
2022-10-07T14:22:56.010Z,2070
2022-10-07T14:28:00.253Z,2017
2022-10-07T14:33:04.330Z,1913
2022-10-07T14:38:08.615Z,1846
2022-10-07T14:43:12.687Z,1785
2022-10-07T14:48:16.829Z,1815
2022-10-07T14:53:20.964Z,1881
2022-10-07T14:58:25.133Z,1850
2022-10-07T15:08:33.475Z,1761
2022-10-07T15:13:37.632Z,1784
2022-10-07T15:18:45.134Z,1755
2022-10-07T15:23:45.946Z,1853
2022-10-07T15:28:50.213Z,1825
2022-10-07T15:33:52.387Z,1756
2022-10-07T15:38:56.500Z,1708
2022-10-07T15:44:00.750Z,1748
2022-10-07T15:49:02.969Z,2400
2022-10-07T15:54:07.130Z,4691
2022-10-07T15:59:11.282Z,2248
2022-10-07T16:04:15.432Z,2361
2022-10-07T16:09:19.630Z,2296
2022-10-07T16:14:23.754Z,2218
2022-10-07T16:19:27.911Z,1254
2022-10-07T16:24:35.125Z,1105
2022-10-07T16:29:36.235Z,945
2022-10-07T16:34:40.372Z,830
2022-10-07T16:39:44.557Z,709
2022-10-07T16:44:50.833Z,523
2022-10-07T16:49:52.896Z,368
2022-10-07T16:54:57.045Z,233
2022-10-07T17:00:01.298Z,134
2022-10-07T17:05:05.390Z,74
2022-10-07T17:10:09.531Z,40
2022-10-07T17:15:13.703Z,21
2022-10-07T17:20:17.834Z,8
2022-10-07T17:25:22.019Z,2
2022-10-07T17:30:26.208Z,0
2022-10-07T17:35:30.437Z,0
2022-10-07T17:40:32.644Z,0
2022-10-07T17:50:39.089Z,0
2022-10-07T17:55:41.353Z,0
2022-10-07T18:00:45.495Z,0
2022-10-07T18:05:49.611Z,0
2022-10-07T18:10:53.804Z,0
2022-10-07T18:15:57.957Z,0
2022-10-07T18:21:02.094Z,0
2022-10-07T18:26:06.288Z,0
2022-10-07T18:31:12.083Z,0
2022-10-07T18:36:14.597Z,0
2022-10-07T18:41:18.759Z,0
2022-10-07T18:46:22.916Z,0
2022-10-07T18:56:31.416Z,0
2022-10-07T19:01:35.650Z,0
2022-10-07T19:06:39.624Z,0
2022-10-07T19:11:43.828Z,0
2022-10-07T19:16:48.013Z,0
2022-10-07T19:21:52.083Z,0
2022-10-07T19:26:56.290Z,0
2022-10-07T19:32:04.397Z,0
2022-10-07T19:37:04.631Z,0
2022-10-07T19:42:08.855Z,0
2022-10-07T19:47:11.036Z,0
2022-10-07T19:52:15.162Z,0
2022-10-07T19:57:19.378Z,0
2022-10-07T20:02:23.593Z,0
2022-10-07T20:07:27.696Z,0
2022-10-07T20:12:31.858Z,0
2022-10-07T20:17:35.988Z,0
2022-10-07T20:22:40.168Z,0
2022-10-07T20:27:44.886Z,0
2022-10-07T20:32:49.066Z,0
2022-10-07T20:37:52.698Z,0
2022-10-07T20:42:56.736Z,0
2022-10-07T20:48:00.911Z,0
2022-10-07T20:53:05.058Z,0
2022-10-07T20:58:09.217Z,0
2022-10-07T21:03:13.383Z,0
2022-10-07T21:08:17.545Z,0
2022-10-07T21:13:21.719Z,0
2022-10-07T21:18:25.886Z,0
2022-10-07T21:23:30.022Z,0
2022-10-07T21:28:34.259Z,0
2022-10-07T21:33:36.463Z,0
2022-10-07T21:38:40.641Z,0
2022-10-07T21:43:44.790Z,0
2022-10-07T21:48:48.980Z,0
2022-10-07T21:53:53.107Z,0
2022-10-07T21:58:57.298Z,0
2022-10-07T22:04:01.516Z,0
2022-10-07T22:09:05.616Z,0
2022-10-07T22:14:12.546Z,0
2022-10-07T22:19:14.978Z,0
2022-10-07T22:24:18.179Z,0
2022-10-07T22:29:22.352Z,0
2022-10-07T22:39:30.649Z,0
2022-10-07T22:44:34.748Z,0
2022-10-07T22:49:47.094Z,0
2022-10-07T22:54:43.065Z,0
2022-10-07T22:59:47.199Z,0
2022-10-07T23:04:51.407Z,0
2022-10-07T23:09:55.543Z,0
2022-10-07T23:14:59.699Z,0
2022-10-07T23:20:03.878Z,0
2022-10-07T23:25:06.113Z,0
2022-10-07T23:30:10.320Z,0
2022-10-07T23:35:12.569Z,0
2022-10-07T23:40:16.733Z,0
2022-10-07T23:45:20.901Z,0
2022-10-07T23:50:25.042Z,0
2022-10-07T23:55:29.245Z,0
